createdAt,value
2023-02-13T00:00:53.831Z,0.00
2023-02-13T00:01:53.856Z,0.00
2023-02-13T00:02:54.252Z,0.00
2023-02-13T00:03:53.887Z,0.00
2023-02-13T00:04:53.867Z,0.00
2023-02-13T00:05:53.809Z,0.00
2023-02-13T00:06:53.805Z,0.00
2023-02-13T00:07:53.800Z,0.00
2023-02-13T00:08:53.810Z,0.00
2023-02-13T00:09:53.768Z,0.00
2023-02-13T00:10:53.798Z,0.00
2023-02-13T00:11:53.763Z,0.00
2023-02-13T00:12:53.784Z,0.00
2023-02-13T00:13:53.747Z,0.00
2023-02-13T00:14:53.756Z,0.00
2023-02-13T00:15:53.770Z,0.00
2023-02-13T00:16:53.762Z,0.00
2023-02-13T00:17:53.730Z,0.00
2023-02-13T00:18:53.716Z,0.00
2023-02-13T00:19:53.699Z,0.00
2023-02-13T00:20:53.749Z,0.00
2023-02-13T00:21:53.704Z,0.00
2023-02-13T00:22:53.674Z,0.00
2023-02-13T00:23:53.691Z,0.00
2023-02-13T00:24:53.656Z,0.00
2023-02-13T00:26:23.810Z,0.00
2023-02-13T00:26:53.690Z,0.00
2023-02-13T00:27:53.660Z,0.00
2023-02-13T00:28:53.668Z,0.00
2023-02-13T00:29:53.631Z,0.00
2023-02-13T00:30:53.684Z,0.00
2023-02-13T00:31:53.704Z,0.00
2023-02-13T00:32:53.660Z,0.00
2023-02-13T00:33:53.621Z,0.00
2023-02-13T00:34:53.601Z,0.00
2023-02-13T00:35:53.620Z,0.00
2023-02-13T00:36:53.579Z,0.00
2023-02-13T00:37:53.599Z,0.00
2023-02-13T00:38:53.619Z,0.00
2023-02-13T00:39:53.570Z,0.00
2023-02-13T00:40:53.558Z,0.00
2023-02-13T00:41:53.548Z,0.00
2023-02-13T00:42:53.559Z,0.00
2023-02-13T00:43:53.514Z,0.00
2023-02-13T00:44:53.555Z,0.00
2023-02-13T00:45:53.555Z,0.00
2023-02-13T00:46:53.590Z,0.00
2023-02-13T00:47:53.565Z,0.00
2023-02-13T00:48:53.529Z,0.00
2023-02-13T00:49:53.486Z,0.00
2023-02-13T00:50:53.490Z,0.00
2023-02-13T00:51:53.515Z,0.00
2023-02-13T00:52:53.472Z,0.00
2023-02-13T00:53:53.461Z,0.00
2023-02-13T00:54:53.469Z,0.00
2023-02-13T00:55:53.449Z,0.00
2023-02-13T00:56:53.524Z,0.00
2023-02-13T00:57:53.426Z,0.00
2023-02-13T00:58:53.422Z,0.00
2023-02-13T00:59:53.411Z,0.00
2023-02-13T01:00:53.427Z,0.00
2023-02-13T01:01:53.457Z,0.00
2023-02-13T01:03:28.578Z,0.00
2023-02-13T01:03:53.417Z,0.00
2023-02-13T01:04:53.372Z,0.00
2023-02-13T01:05:53.441Z,0.00
2023-02-13T01:06:53.361Z,0.00
2023-02-13T01:07:53.379Z,0.00
2023-02-13T01:08:53.748Z,0.00
2023-02-13T01:09:53.362Z,0.00
2023-02-13T01:10:53.354Z,0.00
2023-02-13T01:11:53.359Z,0.00
2023-02-13T01:12:53.339Z,0.00
2023-02-13T01:13:53.313Z,0.00
2023-02-13T01:14:53.334Z,0.00
2023-02-13T01:15:53.377Z,0.00
2023-02-13T01:16:53.321Z,0.00
2023-02-13T01:17:53.273Z,0.00
2023-02-13T01:18:53.285Z,0.00
2023-02-13T01:19:53.283Z,0.00
2023-02-13T01:20:53.339Z,0.00
2023-02-13T01:21:53.265Z,0.00
2023-02-13T01:22:53.250Z,0.00
2023-02-13T01:23:53.240Z,0.00
2023-02-13T01:24:53.231Z,0.00
2023-02-13T01:25:53.237Z,0.00
2023-02-13T01:26:53.270Z,0.00
2023-02-13T01:27:53.205Z,0.00
2023-02-13T01:28:53.236Z,0.00
2023-02-13T01:29:53.207Z,0.00
2023-02-13T01:30:53.255Z,0.00
2023-02-13T01:31:53.309Z,0.00
2023-02-13T01:32:53.220Z,0.00
2023-02-13T01:33:53.165Z,0.00
2023-02-13T01:34:53.204Z,0.00
2023-02-13T01:36:19.290Z,0.00
2023-02-13T01:36:54.170Z,0.00
2023-02-13T01:37:53.155Z,0.00
2023-02-13T01:38:53.182Z,0.00
2023-02-13T01:39:53.138Z,0.00
2023-02-13T01:40:53.110Z,0.00
2023-02-13T01:41:53.117Z,0.00
2023-02-13T01:42:53.100Z,0.00
2023-02-13T01:43:53.099Z,0.00
2023-02-13T01:44:53.134Z,0.00
2023-02-13T01:45:53.087Z,0.00
2023-02-13T01:46:53.157Z,0.00
2023-02-13T01:47:53.075Z,0.00
2023-02-13T01:48:53.055Z,0.00
2023-02-13T01:49:53.063Z,0.00
2023-02-13T01:50:53.083Z,0.00
2023-02-13T01:51:53.048Z,0.00
2023-02-13T01:52:53.025Z,0.00
2023-02-13T01:53:53.077Z,0.00
2023-02-13T01:54:53.042Z,0.00
2023-02-13T01:55:52.988Z,0.00
2023-02-13T01:56:53.048Z,0.00
2023-02-13T01:57:52.980Z,0.00
2023-02-13T01:58:52.978Z,0.00
2023-02-13T01:59:52.974Z,0.00
2023-02-13T02:00:52.966Z,0.00
2023-02-13T02:01:53.031Z,0.00
2023-02-13T02:02:53.016Z,0.00
2023-02-13T02:03:52.940Z,0.00
2023-02-13T02:04:52.960Z,0.00
2023-02-13T02:05:52.923Z,0.00
2023-02-13T02:06:52.926Z,0.00
2023-02-13T02:07:52.904Z,0.00
2023-02-13T02:08:52.947Z,0.00
2023-02-13T02:09:52.918Z,0.00
2023-02-13T02:10:52.901Z,0.00
2023-02-13T02:11:52.874Z,0.00
2023-02-13T02:12:52.889Z,0.00
2023-02-13T02:13:52.866Z,0.00
2023-02-13T02:14:53.269Z,0.00
2023-02-13T02:15:52.916Z,0.00
2023-02-13T02:16:52.851Z,0.00
2023-02-13T02:17:52.815Z,0.00
2023-02-13T02:18:52.823Z,0.00
2023-02-13T02:19:52.821Z,0.00
2023-02-13T02:20:52.902Z,0.00
2023-02-13T02:21:52.816Z,0.00
2023-02-13T02:22:52.806Z,0.00
2023-02-13T02:23:52.802Z,0.00
2023-02-13T02:24:52.785Z,0.00
2023-02-13T02:25:52.788Z,0.00
2023-02-13T02:26:52.813Z,0.00
2023-02-13T02:27:52.776Z,0.00
2023-02-13T02:28:52.765Z,0.00
2023-02-13T02:29:52.740Z,0.00
2023-02-13T02:30:52.808Z,1.00
2023-02-13T02:31:52.797Z,0.00
2023-02-13T02:32:52.803Z,0.00
2023-02-13T02:33:52.742Z,0.00
2023-02-13T02:34:52.727Z,0.00
2023-02-13T02:35:52.708Z,0.00
2023-02-13T02:36:52.710Z,0.00
2023-02-13T02:37:52.701Z,0.00
2023-02-13T02:38:52.724Z,0.00
2023-02-13T02:39:52.674Z,0.00
2023-02-13T02:40:52.689Z,0.00
2023-02-13T02:41:52.644Z,0.00
2023-02-13T02:42:52.657Z,0.00
2023-02-13T02:43:52.650Z,0.00
2023-02-13T02:44:52.699Z,0.00
2023-02-13T02:45:52.643Z,0.00
2023-02-13T02:46:52.648Z,0.00
2023-02-13T02:47:52.642Z,0.00
2023-02-13T02:48:52.633Z,0.00
2023-02-13T02:49:52.601Z,0.00
2023-02-13T02:50:52.636Z,0.00
2023-02-13T02:51:52.587Z,0.00
2023-02-13T02:53:01.909Z,0.00
2023-02-13T02:53:52.565Z,0.00
2023-02-13T02:54:52.573Z,0.00
2023-02-13T02:55:52.556Z,0.00
2023-02-13T02:56:52.706Z,0.00
2023-02-13T02:57:52.544Z,0.00
2023-02-13T02:58:52.558Z,0.00
2023-02-13T02:59:52.516Z,0.00
2023-02-13T03:00:52.557Z,0.00
2023-02-13T03:01:52.495Z,0.00
2023-02-13T03:02:52.556Z,0.00
2023-02-13T03:03:52.497Z,0.00
2023-02-13T03:04:52.512Z,0.00
2023-02-13T03:05:52.486Z,0.00
2023-02-13T03:06:52.463Z,0.00
2023-02-13T03:07:52.454Z,0.00
2023-02-13T03:08:52.490Z,0.00
2023-02-13T03:09:52.444Z,0.00
2023-02-13T03:10:52.456Z,0.00
2023-02-13T03:11:52.436Z,0.00
2023-02-13T03:12:52.641Z,0.00
2023-02-13T03:13:52.510Z,0.00
2023-02-13T03:14:52.640Z,0.00
2023-02-13T03:15:52.418Z,0.00
2023-02-13T03:16:52.437Z,0.00
2023-02-13T03:17:52.484Z,0.00
2023-02-13T03:18:52.381Z,0.00
2023-02-13T03:19:52.521Z,0.00
2023-02-13T03:20:52.818Z,0.00
2023-02-13T03:21:52.366Z,0.00
2023-02-13T03:22:52.361Z,0.00
2023-02-13T03:23:52.489Z,0.00
2023-02-13T03:24:52.369Z,0.00
2023-02-13T03:25:52.335Z,0.00
2023-02-13T03:26:52.379Z,0.00
2023-02-13T03:27:52.311Z,0.00
2023-02-13T03:28:52.302Z,0.00
2023-02-13T03:29:52.295Z,0.00
2023-02-13T03:30:52.350Z,0.00
2023-02-13T03:31:52.350Z,0.00
2023-02-13T03:32:52.372Z,0.00
2023-02-13T03:33:52.322Z,0.00
2023-02-13T03:34:52.279Z,0.00
2023-02-13T03:35:52.275Z,0.00
2023-02-13T03:36:52.332Z,0.00
2023-02-13T03:37:52.273Z,0.00
2023-02-13T03:38:52.313Z,0.00
2023-02-13T03:39:52.262Z,0.00
2023-02-13T03:40:52.235Z,0.00
2023-02-13T03:41:52.288Z,0.00
2023-02-13T03:42:52.196Z,0.00
2023-02-13T03:43:52.212Z,0.00
2023-02-13T03:44:52.272Z,0.00
2023-02-13T03:45:52.217Z,0.00
2023-02-13T03:46:52.172Z,0.00
2023-02-13T03:47:52.173Z,0.00
2023-02-13T03:48:52.283Z,0.00
2023-02-13T03:49:52.160Z,0.00
2023-02-13T03:50:52.199Z,0.00
2023-02-13T03:51:52.163Z,0.00
2023-02-13T03:52:52.164Z,0.00
2023-02-13T03:53:52.277Z,0.00
2023-02-13T03:54:52.179Z,0.00
2023-02-13T03:55:52.212Z,0.00
2023-02-13T03:56:52.244Z,0.00
2023-02-13T03:57:52.192Z,0.00
2023-02-13T03:58:52.273Z,0.00
2023-02-13T03:59:52.206Z,0.00
2023-02-13T04:01:04.211Z,0.00
2023-02-13T04:01:52.104Z,0.00
2023-02-13T04:02:52.096Z,0.00
2023-02-13T04:03:52.040Z,0.00
2023-02-13T04:04:52.057Z,0.00
2023-02-13T04:05:52.037Z,0.00
2023-02-13T04:06:52.020Z,0.00
2023-02-13T04:07:52.022Z,0.00
2023-02-13T04:08:52.063Z,0.00
2023-02-13T04:09:52.002Z,0.00
2023-02-13T04:10:52.010Z,0.00
2023-02-13T04:11:51.983Z,0.00
2023-02-13T04:12:51.982Z,0.00
2023-02-13T04:13:51.973Z,0.00
2023-02-13T04:14:51.994Z,0.00
2023-02-13T04:15:51.957Z,0.00
2023-02-13T04:16:51.978Z,0.00
2023-02-13T04:17:51.951Z,0.00
2023-02-13T04:18:51.964Z,0.00
2023-02-13T04:19:51.931Z,0.00
2023-02-13T04:20:51.962Z,0.00
2023-02-13T04:21:51.908Z,0.00
2023-02-13T04:22:51.929Z,0.00
2023-02-13T04:23:51.905Z,0.00
2023-02-13T04:24:51.880Z,0.00
2023-02-13T04:25:51.912Z,0.00
2023-02-13T04:26:52.312Z,0.00
2023-02-13T04:27:51.896Z,0.00
2023-02-13T04:28:51.871Z,0.00
2023-02-13T04:29:51.863Z,0.00
2023-02-13T04:30:51.970Z,0.00
2023-02-13T04:31:52.106Z,0.00
2023-02-13T04:32:51.884Z,0.00
2023-02-13T04:33:51.826Z,0.00
2023-02-13T04:34:51.819Z,0.00
2023-02-13T04:35:51.822Z,0.00
2023-02-13T04:36:51.904Z,0.00
2023-02-13T04:37:51.801Z,0.00
2023-02-13T04:38:51.843Z,0.00
2023-02-13T04:39:51.776Z,0.00
2023-02-13T04:40:51.777Z,0.00
2023-02-13T04:41:51.772Z,0.00
2023-02-13T04:42:51.746Z,0.00
2023-02-13T04:43:51.747Z,0.00
2023-02-13T04:44:51.799Z,0.00
2023-02-13T04:46:08.298Z,0.00
2023-02-13T04:46:51.744Z,0.00
2023-02-13T04:47:51.724Z,0.00
2023-02-13T04:48:51.732Z,0.00
2023-02-13T04:49:51.722Z,0.00
2023-02-13T04:50:51.748Z,0.00
2023-02-13T04:51:51.690Z,0.00
2023-02-13T04:52:51.677Z,0.00
2023-02-13T04:53:51.698Z,0.00
2023-02-13T04:54:51.670Z,0.00
2023-02-13T04:55:51.675Z,0.00
2023-02-13T04:56:51.768Z,0.00
2023-02-13T04:57:51.656Z,0.00
2023-02-13T04:58:51.657Z,0.00
2023-02-13T04:59:51.658Z,0.00
2023-02-13T05:00:51.658Z,0.00
2023-02-13T05:01:51.624Z,0.00
2023-02-13T05:02:51.655Z,0.00
2023-02-13T05:03:51.612Z,0.00
2023-02-13T05:04:51.717Z,0.00
2023-02-13T05:05:51.605Z,0.00
2023-02-13T05:06:51.584Z,0.00
2023-02-13T05:07:51.582Z,0.00
2023-02-13T05:08:51.633Z,0.00
2023-02-13T05:09:51.584Z,0.00
2023-02-13T05:10:51.584Z,0.00
2023-02-13T05:11:51.556Z,0.00
2023-02-13T05:12:51.566Z,0.00
2023-02-13T05:13:51.549Z,0.00
2023-02-13T05:14:51.562Z,0.00
2023-02-13T05:15:51.573Z,0.00
2023-02-13T05:16:51.510Z,0.00
2023-02-13T05:17:51.507Z,0.00
2023-02-13T05:18:51.534Z,0.00
2023-02-13T05:19:51.520Z,0.00
2023-02-13T05:20:51.541Z,0.00
2023-02-13T05:21:51.506Z,0.00
2023-02-13T05:22:51.488Z,0.00
2023-02-13T05:23:51.478Z,0.00
2023-02-13T05:24:51.464Z,0.00
2023-02-13T05:25:51.459Z,0.00
2023-02-13T05:26:51.482Z,0.00
2023-02-13T05:27:51.453Z,0.00
2023-02-13T05:28:51.449Z,0.00
2023-02-13T05:29:51.432Z,0.00
2023-02-13T05:30:51.487Z,0.00
2023-02-13T05:31:51.478Z,0.00
2023-02-13T05:32:51.623Z,0.00
2023-02-13T05:33:51.401Z,0.00
2023-02-13T05:34:51.396Z,0.00
2023-02-13T05:35:51.400Z,0.00
2023-02-13T05:36:51.386Z,0.00
2023-02-13T05:37:51.359Z,0.00
2023-02-13T05:38:51.405Z,0.00
2023-02-13T05:39:51.358Z,0.00
2023-02-13T05:40:51.376Z,0.00
2023-02-13T05:41:51.327Z,0.00
2023-02-13T05:42:51.370Z,0.00
2023-02-13T05:43:51.351Z,0.00
2023-02-13T05:44:51.360Z,0.00
2023-02-13T05:45:51.315Z,0.00
2023-02-13T05:46:51.301Z,0.00
2023-02-13T05:47:51.301Z,0.00
2023-02-13T05:48:51.286Z,0.00
2023-02-13T05:49:51.317Z,0.00
2023-02-13T05:50:51.319Z,0.00
2023-02-13T05:51:51.269Z,0.00
2023-02-13T05:52:51.253Z,0.00
2023-02-13T05:53:51.251Z,0.00
2023-02-13T05:54:51.232Z,0.00
2023-02-13T05:55:51.226Z,0.00
2023-02-13T05:56:51.272Z,0.00
2023-02-13T05:57:51.212Z,1.00
2023-02-13T05:58:51.216Z,1.00
2023-02-13T05:59:51.199Z,1.00
2023-02-13T06:00:51.168Z,1.00
2023-02-13T06:01:51.181Z,0.00
2023-02-13T06:02:51.282Z,0.00
2023-02-13T06:04:07.913Z,0.00
2023-02-13T06:04:51.149Z,0.00
2023-02-13T06:05:51.156Z,0.00
2023-02-13T06:06:51.172Z,1.00
2023-02-13T06:07:51.120Z,1.00
2023-02-13T06:08:51.188Z,0.00
2023-02-13T06:09:51.124Z,0.00
2023-02-13T06:10:51.148Z,1.00
2023-02-13T06:11:51.103Z,1.00
2023-02-13T06:12:51.111Z,1.00
2023-02-13T06:13:51.116Z,1.00
2023-02-13T06:14:51.124Z,2.00
2023-02-13T06:15:51.093Z,4.00
2023-02-13T06:16:51.077Z,4.00
2023-02-13T06:17:51.053Z,4.00
2023-02-13T06:18:51.040Z,3.00
2023-02-13T06:19:51.059Z,5.00
2023-02-13T06:20:51.101Z,8.00
2023-02-13T06:21:51.041Z,8.00
2023-02-13T06:22:51.058Z,10.00
2023-02-13T06:23:50.999Z,10.00
2023-02-13T06:24:51.015Z,13.00
2023-02-13T06:25:51.004Z,16.00
2023-02-13T06:26:51.057Z,19.00
2023-02-13T06:27:50.988Z,20.00
2023-02-13T06:28:50.989Z,26.00
2023-02-13T06:29:50.960Z,28.00
2023-02-13T06:30:51.150Z,33.00
2023-02-13T06:31:51.016Z,38.00
2023-02-13T06:32:51.021Z,41.00
2023-02-13T06:33:50.963Z,46.00
2023-02-13T06:34:50.954Z,53.00
2023-02-13T06:35:50.929Z,60.00
2023-02-13T06:36:50.934Z,67.00
2023-02-13T06:37:50.916Z,74.00
2023-02-13T06:38:51.414Z,81.00
2023-02-13T06:39:50.916Z,89.00
2023-02-13T06:40:50.907Z,98.00
2023-02-13T06:41:50.926Z,109.00
2023-02-13T06:42:50.916Z,117.00
2023-02-13T06:43:50.874Z,126.00
2023-02-13T06:44:50.922Z,136.00
2023-02-13T06:45:50.868Z,149.00
2023-02-13T06:46:50.880Z,161.00
2023-02-13T06:47:50.835Z,171.00
2023-02-13T06:48:50.837Z,183.00
2023-02-13T06:49:50.823Z,194.00
2023-02-13T06:50:50.953Z,207.00
2023-02-13T06:51:50.814Z,220.00
2023-02-13T06:52:50.829Z,232.00
2023-02-13T06:53:50.798Z,245.00
2023-02-13T06:54:50.797Z,258.00
2023-02-13T06:55:50.797Z,272.00
2023-02-13T06:56:50.820Z,285.00
2023-02-13T06:57:50.836Z,299.00
2023-02-13T06:58:50.777Z,310.00
2023-02-13T06:59:50.771Z,325.00
2023-02-13T07:00:50.808Z,341.00
2023-02-13T07:01:50.752Z,353.00
2023-02-13T07:02:50.834Z,366.00
2023-02-13T07:03:50.731Z,380.00
2023-02-13T07:04:50.766Z,393.00
2023-02-13T07:05:50.727Z,408.00
2023-02-13T07:06:50.729Z,420.00
2023-02-13T07:07:50.720Z,434.00
2023-02-13T07:08:50.736Z,446.00
2023-02-13T07:09:50.698Z,462.00
2023-02-13T07:10:50.695Z,477.00
2023-02-13T07:11:51.595Z,489.00
2023-02-13T07:13:00.249Z,503.00
2023-02-13T07:13:51.714Z,517.00
2023-02-13T07:14:50.679Z,529.00
2023-02-13T07:15:50.663Z,544.00
2023-02-13T07:16:50.664Z,557.00
2023-02-13T07:17:50.647Z,570.00
2023-02-13T07:18:50.637Z,582.00
2023-02-13T07:19:50.643Z,601.00
2023-02-13T07:20:50.623Z,619.00
2023-02-13T07:21:50.628Z,643.00
2023-02-13T07:22:50.605Z,672.00
2023-02-13T07:23:50.590Z,700.00
2023-02-13T07:24:50.605Z,728.00
2023-02-13T07:25:50.610Z,751.00
2023-02-13T07:26:50.589Z,771.00
2023-02-13T07:27:50.564Z,790.00
2023-02-13T07:28:59.439Z,808.00
2023-02-13T07:29:51.541Z,827.00
2023-02-13T07:30:50.671Z,844.00
2023-02-13T07:31:50.648Z,867.00
2023-02-13T07:32:50.552Z,891.00
2023-02-13T07:33:50.518Z,933.00
2023-02-13T07:35:01.361Z,973.00
2023-02-13T07:35:51.531Z,1064.00
2023-02-13T07:36:50.500Z,1099.00
2023-02-13T07:37:50.537Z,1050.00
2023-02-13T07:38:50.510Z,1058.00
2023-02-13T07:39:50.490Z,1171.00
2023-02-13T07:40:50.522Z,1207.00
2023-02-13T07:41:50.467Z,1159.00
2023-02-13T07:42:50.493Z,1256.00
2023-02-13T07:43:50.861Z,1354.00
2023-02-13T07:44:50.455Z,1327.00
2023-02-13T07:45:50.432Z,1260.00
2023-02-13T07:46:50.527Z,1229.00
2023-02-13T07:47:50.422Z,1266.00
2023-02-13T07:48:50.424Z,1322.00
2023-02-13T07:49:50.471Z,1369.00
2023-02-13T07:50:50.405Z,1437.00
2023-02-13T07:51:50.406Z,1393.00
2023-02-13T07:52:50.454Z,1379.00
2023-02-13T07:53:50.392Z,1454.00
2023-02-13T07:54:50.376Z,1426.00
2023-02-13T07:55:50.406Z,1405.00
2023-02-13T07:56:50.361Z,1422.00
2023-02-13T07:57:50.363Z,1453.00
2023-02-13T07:58:50.363Z,1493.00
2023-02-13T07:59:50.363Z,1485.00
2023-02-13T08:00:50.349Z,1557.00
2023-02-13T08:01:50.415Z,1574.00
2023-02-13T08:02:50.314Z,1502.00
2023-02-13T08:03:50.338Z,1509.00
2023-02-13T08:04:50.303Z,1541.00
2023-02-13T08:05:50.326Z,1518.00
2023-02-13T08:06:50.305Z,1569.00
2023-02-13T08:07:50.336Z,1652.00
2023-02-13T08:08:50.283Z,1680.00
2023-02-13T08:09:50.295Z,1752.00
2023-02-13T08:10:50.265Z,1812.00
2023-02-13T08:11:50.262Z,1829.00
2023-02-13T08:12:50.242Z,1851.00
2023-02-13T08:13:50.301Z,1834.00
2023-02-13T08:14:50.231Z,1787.00
2023-02-13T08:15:50.206Z,1748.00
2023-02-13T08:16:50.285Z,1784.00
2023-02-13T08:17:50.241Z,1900.00
2023-02-13T08:18:50.203Z,1928.00
2023-02-13T08:19:50.253Z,1950.00
2023-02-13T08:20:50.209Z,1968.00
2023-02-13T08:21:50.187Z,1950.00
2023-02-13T08:22:50.181Z,1860.00
2023-02-13T08:23:50.161Z,1800.00
2023-02-13T08:24:50.183Z,1799.00
2023-02-13T08:25:50.194Z,1806.00
2023-02-13T08:26:50.141Z,1816.00
2023-02-13T08:27:50.145Z,1830.00
2023-02-13T08:28:50.145Z,1839.00
2023-02-13T08:29:50.133Z,1852.00
2023-02-13T08:30:50.163Z,1870.00
2023-02-13T08:31:50.201Z,1886.00
2023-02-13T08:32:54.249Z,1892.00
2023-02-13T08:33:50.073Z,1903.00
2023-02-13T08:34:50.082Z,1913.00
2023-02-13T08:35:50.091Z,1928.00
2023-02-13T08:36:50.097Z,1939.00
2023-02-13T08:37:50.119Z,1967.00
2023-02-13T08:38:50.053Z,1980.00
2023-02-13T08:39:50.052Z,2007.00
2023-02-13T08:40:50.036Z,2014.00
2023-02-13T08:41:50.045Z,2028.00
2023-02-13T08:42:50.035Z,2044.00
2023-02-13T08:43:50.065Z,2069.00
2023-02-13T08:44:50.018Z,2089.00
2023-02-13T08:45:50.060Z,2079.00
2023-02-13T08:46:50.012Z,2097.00
2023-02-13T08:47:50.001Z,2127.00
2023-02-13T08:48:49.986Z,2143.00
2023-02-13T08:49:50.252Z,2129.00
2023-02-13T08:50:49.984Z,2150.00
2023-02-13T08:51:49.967Z,2186.00
2023-02-13T08:52:49.956Z,2194.00
2023-02-13T08:53:49.964Z,2217.00
2023-02-13T08:54:49.967Z,2246.00
2023-02-13T08:55:49.956Z,2232.00
2023-02-13T08:56:49.912Z,2240.00
2023-02-13T08:57:49.906Z,2275.00
2023-02-13T08:58:49.936Z,2318.00
2023-02-13T08:59:49.896Z,2337.00
2023-02-13T09:00:49.932Z,2345.00
2023-02-13T09:01:49.957Z,2358.00
2023-02-13T09:02:49.908Z,2375.00
2023-02-13T09:03:49.886Z,2405.00
2023-02-13T09:04:49.884Z,2419.00
2023-02-13T09:05:49.854Z,2441.00
2023-02-13T09:06:49.847Z,2466.00
2023-02-13T09:07:49.879Z,2480.00
2023-02-13T09:08:49.844Z,2490.00
2023-02-13T09:09:49.829Z,2500.00
2023-02-13T09:10:49.806Z,2511.00
2023-02-13T09:11:49.809Z,2532.00
2023-02-13T09:12:49.794Z,2537.00
2023-02-13T09:13:49.843Z,2547.00
2023-02-13T09:14:49.787Z,2569.00
2023-02-13T09:15:49.802Z,2588.00
2023-02-13T09:16:49.813Z,2606.00
2023-02-13T09:17:49.775Z,2612.00
2023-02-13T09:18:49.761Z,2616.00
2023-02-13T09:19:49.833Z,2646.00
2023-02-13T09:25:50.739Z,2757.00
2023-02-13T09:26:49.820Z,2888.00
2023-02-13T09:27:49.692Z,2791.00
2023-02-13T09:28:49.800Z,2849.00
2023-02-13T09:29:49.694Z,2853.00
2023-02-13T09:30:49.766Z,2561.00
2023-02-13T09:31:49.844Z,2841.00
2023-02-13T09:32:49.662Z,2864.00
2023-02-13T09:33:49.664Z,2863.00
2023-02-13T09:34:49.632Z,2822.00
2023-02-13T09:35:49.633Z,2867.00
2023-02-13T09:36:49.615Z,2858.00
2023-02-13T09:37:49.681Z,2903.00
2023-02-13T09:38:49.612Z,2916.00
2023-02-13T09:39:49.603Z,2923.00
2023-02-13T09:40:49.612Z,2939.00
2023-02-13T09:41:49.584Z,2946.00
2023-02-13T09:42:49.580Z,2961.00
2023-02-13T09:43:49.634Z,2964.00
2023-02-13T09:44:49.603Z,2986.00
2023-02-13T09:45:49.584Z,3024.00
2023-02-13T09:46:49.572Z,3040.00
2023-02-13T09:47:49.573Z,3056.00
2023-02-13T09:48:49.530Z,3067.00
2023-02-13T09:49:49.563Z,3107.00
2023-02-13T09:50:49.566Z,3101.00
2023-02-13T09:51:49.526Z,3112.00
2023-02-13T09:52:49.514Z,3059.00
2023-02-13T09:53:49.514Z,2991.00
2023-02-13T09:54:49.530Z,3002.00
2023-02-13T09:55:49.910Z,3009.00
2023-02-13T09:56:49.487Z,2976.00
2023-02-13T09:57:49.469Z,2962.00
2023-02-13T09:58:49.458Z,2990.00
2023-02-13T09:59:49.483Z,3002.00
2023-02-13T10:00:50.887Z,2999.00
2023-02-13T10:01:49.520Z,3017.00
2023-02-13T10:02:49.457Z,3000.00
2023-02-13T10:03:49.450Z,3008.00
2023-02-13T10:04:49.459Z,3029.00
2023-02-13T10:05:49.427Z,3031.00
2023-02-13T10:06:49.428Z,3030.00
2023-02-13T10:07:49.433Z,3022.00
2023-02-13T10:08:49.411Z,3068.00
2023-02-13T10:09:49.395Z,3045.00
2023-02-13T10:10:49.404Z,3071.00
2023-02-13T10:11:49.355Z,3078.00
2023-02-13T10:12:49.381Z,3033.00
2023-02-13T10:13:49.385Z,3060.00
2023-02-13T10:14:49.362Z,3062.00
2023-02-13T10:15:49.355Z,3076.00
2023-02-13T10:16:49.352Z,3070.00
2023-02-13T10:17:49.340Z,3060.00
2023-02-13T10:18:49.343Z,3056.00
2023-02-13T10:19:49.380Z,3070.00
2023-02-13T10:20:49.321Z,3086.00
2023-02-13T10:21:49.302Z,3079.00
2023-02-13T10:22:49.283Z,3079.00
2023-02-13T10:23:49.286Z,3079.00
2023-02-13T10:24:49.272Z,3085.00
2023-02-13T10:25:49.321Z,3085.00
2023-02-13T10:26:49.271Z,3086.00
2023-02-13T10:27:49.274Z,3096.00
2023-02-13T10:28:49.254Z,3099.00
2023-02-13T10:29:49.230Z,3100.00
2023-02-13T10:30:49.412Z,3126.00
2023-02-13T10:31:49.539Z,3138.00
2023-02-13T10:32:49.204Z,3161.00
2023-02-13T10:33:49.201Z,3179.00
2023-02-13T10:34:49.222Z,3192.00
2023-02-13T10:35:49.171Z,3188.00
2023-02-13T10:41:23.663Z,3289.00
2023-02-13T10:42:11.724Z,3294.00
2023-02-13T10:43:10.679Z,3288.00
2023-02-13T10:44:10.644Z,3293.00
2023-02-13T10:45:10.612Z,3287.00
2023-02-13T10:46:10.718Z,3274.00
2023-02-13T10:47:10.736Z,3266.00
2023-02-13T10:48:10.648Z,3267.00
2023-02-13T10:49:10.644Z,3265.00
2023-02-13T10:50:10.553Z,3255.00
2023-02-13T10:51:10.630Z,3246.00
2023-02-13T10:52:10.591Z,3269.00
2023-02-13T10:53:10.635Z,3254.00
2023-02-13T10:54:10.566Z,3247.00
2023-02-13T10:55:10.533Z,3234.00
2023-02-13T10:56:10.565Z,3250.00
2023-02-13T10:57:10.569Z,3240.00
2023-02-13T10:58:10.552Z,3246.00
2023-02-13T10:59:10.816Z,3232.00
2023-02-13T11:00:10.503Z,3312.00
2023-02-13T11:01:10.529Z,3188.00
2023-02-13T11:02:10.475Z,3182.00
2023-02-13T11:03:10.534Z,3164.00
2023-02-13T11:04:10.513Z,3170.00
2023-02-13T11:05:10.532Z,3153.00
2023-02-13T11:06:10.565Z,3114.00
2023-02-13T11:07:10.479Z,3112.00
2023-02-13T11:08:10.510Z,3092.00
2023-02-13T11:09:10.459Z,3080.00
2023-02-13T11:10:10.454Z,3067.00
2023-02-13T11:11:10.578Z,3086.00
2023-02-13T11:12:10.457Z,3054.00
2023-02-13T11:13:10.436Z,3050.00
2023-02-13T11:14:10.391Z,3045.00
2023-02-13T11:15:10.365Z,3035.00
2023-02-13T11:16:10.556Z,3023.00
2023-02-13T11:17:10.430Z,3023.00
2023-02-13T11:18:10.403Z,3019.00
2023-02-13T11:19:10.349Z,3028.00
2023-02-13T11:20:10.401Z,3029.00
2023-02-13T11:21:10.343Z,3001.00
2023-02-13T11:22:10.333Z,2989.00
2023-02-13T11:23:10.563Z,2980.00
2023-02-13T11:24:10.388Z,2976.00
2023-02-13T11:25:10.421Z,2973.00
2023-02-13T11:26:10.325Z,2963.00
2023-02-13T11:27:10.379Z,2944.00
2023-02-13T11:28:10.410Z,2940.00
2023-02-13T11:29:10.447Z,2937.00
2023-02-13T11:30:10.306Z,2937.00
2023-02-13T11:31:10.397Z,2926.00
2023-02-13T11:32:10.368Z,2923.00
2023-02-13T11:33:10.250Z,2923.00
2023-02-13T11:34:10.265Z,2924.00
2023-02-13T11:35:10.310Z,2902.00
2023-02-13T11:36:10.261Z,2893.00
2023-02-13T11:37:10.280Z,2898.00
2023-02-13T11:38:10.223Z,2893.00
2023-02-13T11:39:10.248Z,2894.00
2023-02-13T11:40:10.193Z,2890.00
2023-02-13T11:41:10.280Z,2885.00
2023-02-13T11:42:10.308Z,2877.00
2023-02-13T11:43:10.258Z,2871.00
2023-02-13T11:44:10.206Z,2860.00
2023-02-13T11:45:10.162Z,3090.00
2023-02-13T11:46:10.210Z,3507.00
2023-02-13T11:47:10.185Z,3370.00
2023-02-13T11:48:10.151Z,3071.00
2023-02-13T11:49:10.117Z,3337.00
2023-02-13T11:50:10.120Z,3294.00
2023-02-13T11:51:10.126Z,3500.00
2023-02-13T11:52:10.127Z,3160.00
2023-02-13T11:53:10.157Z,2813.00
2023-02-13T11:54:10.179Z,2800.00
2023-02-13T11:55:10.098Z,2805.00
2023-02-13T11:56:10.098Z,2795.00
2023-02-13T11:57:10.110Z,2793.00
2023-02-13T11:58:13.440Z,2789.00
2023-02-13T11:59:10.140Z,2784.00
2023-02-13T12:00:10.221Z,2760.00
2023-02-13T12:01:10.052Z,2759.00
2023-02-13T12:02:10.059Z,2771.00
2023-02-13T12:03:10.120Z,2761.00
2023-02-13T12:04:10.042Z,2762.00
2023-02-13T12:05:10.500Z,2761.00
2023-02-13T12:06:10.092Z,2759.00
2023-02-13T12:07:10.026Z,2745.00
2023-02-13T12:08:10.023Z,2739.00
2023-02-13T12:09:10.012Z,2724.00
2023-02-13T12:10:10.035Z,2696.00
2023-02-13T12:11:10.043Z,2703.00
2023-02-13T12:12:10.056Z,2697.00
2023-02-13T12:13:10.003Z,2675.00
2023-02-13T12:14:09.983Z,2628.00
2023-02-13T12:15:10.023Z,2623.00
2023-02-13T12:16:10.029Z,2649.00
2023-02-13T12:17:14.387Z,2671.00
2023-02-13T12:18:11.036Z,2647.00
2023-02-13T12:19:10.032Z,2647.00
2023-02-13T12:20:09.984Z,2652.00
2023-02-13T12:21:09.981Z,2650.00
2023-02-13T12:22:10.003Z,2646.00
2023-02-13T12:23:10.063Z,2626.00
2023-02-13T12:24:10.021Z,2618.00
2023-02-13T12:25:09.990Z,2603.00
2023-02-13T12:26:09.954Z,2608.00
2023-02-13T12:27:09.966Z,2625.00
2023-02-13T12:28:09.995Z,2613.00
2023-02-13T12:29:10.018Z,2613.00
2023-02-13T12:30:09.934Z,2632.00
2023-02-13T12:31:09.930Z,2608.00
2023-02-13T12:32:09.887Z,2607.00
2023-02-13T12:33:09.853Z,2607.00
2023-02-13T12:34:09.822Z,2603.00
2023-02-13T12:35:09.870Z,2595.00
2023-02-13T12:36:09.860Z,2625.00
2023-02-13T12:37:10.923Z,2606.00
2023-02-13T12:38:09.861Z,2597.00
2023-02-13T12:39:09.879Z,2601.00
2023-02-13T12:40:09.805Z,2602.00
2023-02-13T12:41:09.961Z,2598.00
2023-02-13T12:42:09.762Z,2596.00
2023-02-13T12:43:09.809Z,2594.00
2023-02-13T12:44:09.823Z,2596.00
2023-02-13T12:45:09.761Z,2589.00
2023-02-13T12:46:09.805Z,2585.00
2023-02-13T12:47:09.800Z,2581.00
2023-02-13T12:48:09.794Z,2577.00
2023-02-13T12:49:09.723Z,2571.00
2023-02-13T12:50:09.762Z,2559.00
2023-02-13T12:51:09.745Z,2551.00
2023-02-13T12:52:09.733Z,2556.00
2023-02-13T12:53:09.721Z,2552.00